createdAt,value
2018-09-15T00:00:44.212Z,97589.44
2018-09-15T00:03:11.659Z,97585.84
2018-09-15T00:05:39.102Z,97592.28
2018-09-15T00:08:06.496Z,97585.70
2018-09-15T00:10:34.229Z,97590.20
2018-09-15T00:13:01.749Z,97590.16
2018-09-15T00:15:29.202Z,97592.09
2018-09-15T00:17:56.659Z,97601.84
2018-09-15T00:20:24.100Z,97605.56
2018-09-15T00:22:51.630Z,97603.87
2018-09-15T00:25:19.187Z,97606.77
2018-09-15T00:27:46.701Z,97607.66
2018-09-15T00:30:14.176Z,97605.64
2018-09-15T00:32:41.583Z,97602.36
2018-09-15T00:35:09.040Z,97606.86
2018-09-15T00:37:36.572Z,97604.20
2018-09-15T00:40:04.988Z,97605.53
2018-09-15T00:42:32.509Z,97592.94
2018-09-15T00:44:59.966Z,97592.45
2018-09-15T00:47:27.430Z,97594.27
2018-09-15T00:49:54.859Z,97593.36
2018-09-15T00:52:22.463Z,97592.36
2018-09-15T00:54:49.917Z,97598.18
2018-09-15T00:57:17.335Z,97597.39
2018-09-15T00:59:44.942Z,97594.66
2018-09-15T01:02:12.386Z,97600.13
2018-09-15T01:04:39.827Z,97605.03
2018-09-15T01:07:07.504Z,97600.88
2018-09-15T01:09:35.032Z,97604.56
2018-09-15T01:12:03.258Z,97609.34
2018-09-15T01:14:30.793Z,97608.06
2018-09-15T01:16:58.248Z,97598.78
2018-09-15T01:19:25.769Z,97604.98
2018-09-15T01:21:53.223Z,97608.75
2018-09-15T01:24:21.126Z,97607.14
2018-09-15T01:26:48.555Z,97604.07
2018-09-15T01:29:16.030Z,97607.69
2018-09-15T01:31:43.512Z,97600.52
2018-09-15T01:34:10.932Z,97602.00
2018-09-15T01:36:38.427Z,97607.15
2018-09-15T01:39:05.904Z,97603.59
2018-09-15T01:41:33.306Z,97607.72
2018-09-15T01:44:00.736Z,97607.61
2018-09-15T01:46:28.411Z,97609.66
2018-09-15T01:48:55.918Z,97616.52
2018-09-15T01:51:23.350Z,97612.70
2018-09-15T01:53:50.758Z,97616.22
2018-09-15T01:56:18.254Z,97616.16
2018-09-15T01:58:45.737Z,97618.38
2018-09-15T02:01:13.162Z,97615.84
2018-09-15T02:03:40.574Z,97616.92
2018-09-15T02:06:08.031Z,97621.34
2018-09-15T02:08:35.426Z,97616.69
2018-09-15T02:11:03.213Z,97624.52
2018-09-15T02:13:30.640Z,97621.78
2018-09-15T02:15:58.085Z,97619.86
2018-09-15T02:18:25.513Z,97623.27
2018-09-15T02:20:53.427Z,97626.20
2018-09-15T02:23:20.858Z,97625.25
2018-09-15T02:25:48.321Z,97628.53
2018-09-15T02:28:15.743Z,97626.83
2018-09-15T02:30:43.169Z,97622.59
2018-09-15T02:33:10.643Z,97627.38
2018-09-15T02:35:38.119Z,97626.41
2018-09-15T02:38:05.574Z,97634.91
2018-09-15T02:40:33.065Z,97629.97
2018-09-15T02:43:00.521Z,97629.11
2018-09-15T02:45:27.947Z,97637.78
2018-09-15T02:47:55.545Z,97634.91
2018-09-15T02:50:23.619Z,97628.66
2018-09-15T02:52:51.106Z,97630.73
2018-09-15T02:55:18.584Z,97630.05
2018-09-15T02:57:46.013Z,97630.05
2018-09-15T03:00:13.611Z,97636.50
2018-09-15T03:02:41.090Z,97641.61
2018-09-15T03:05:08.752Z,97642.06
2018-09-15T03:07:36.179Z,97636.88
2018-09-15T03:10:03.704Z,97639.11
2018-09-15T03:12:31.937Z,97635.66
2018-09-15T03:14:59.377Z,97639.15
2018-09-15T03:17:26.861Z,97642.17
2018-09-15T03:19:54.561Z,97636.53
2018-09-15T03:22:21.991Z,97643.50
2018-09-15T03:24:49.399Z,97639.64
2018-09-15T03:27:16.837Z,97639.55
2018-09-15T03:29:44.273Z,97635.32
2018-09-15T03:32:11.727Z,97640.92
2018-09-15T03:34:39.247Z,97639.94
2018-09-15T03:37:06.666Z,97638.80
2018-09-15T03:39:34.139Z,97640.39
2018-09-15T03:42:01.644Z,97645.00
2018-09-15T03:44:29.073Z,97644.51
2018-09-15T03:46:56.607Z,97654.92
2018-09-15T03:49:24.068Z,97649.77
2018-09-15T03:51:51.659Z,97648.39
2018-09-15T03:54:19.148Z,97653.55
2018-09-15T03:56:46.601Z,97656.13
2018-09-15T03:59:14.007Z,97659.27
2018-09-15T04:01:41.479Z,97654.53
2018-09-15T04:04:08.882Z,97652.61
2018-09-15T04:06:36.308Z,97648.45
2018-09-15T04:09:03.771Z,97654.34
2018-09-15T04:11:31.190Z,97650.67
2018-09-15T04:13:58.598Z,97651.70
2018-09-15T04:16:26.042Z,97648.87
2018-09-15T04:18:53.504Z,97644.84
2018-09-15T04:21:21.005Z,97644.30
2018-09-15T04:23:48.487Z,97645.45
2018-09-15T04:26:15.950Z,97648.92
2018-09-15T04:28:43.457Z,97651.89
2018-09-15T04:31:10.861Z,97653.54
2018-09-15T04:33:38.320Z,97657.14
2018-09-15T04:36:05.792Z,97657.03
2018-09-15T04:38:33.272Z,97659.52
2018-09-15T04:41:00.758Z,97668.61
2018-09-15T04:43:28.269Z,97661.50
2018-09-15T04:45:55.676Z,97656.13
2018-09-15T04:48:23.148Z,97655.30
2018-09-15T04:50:50.567Z,97665.95
2018-09-15T04:53:17.966Z,97667.05
2018-09-15T04:55:45.440Z,97663.18
2018-09-15T04:58:13.427Z,97675.70
2018-09-15T05:00:40.837Z,97677.02
2018-09-15T05:03:08.392Z,97681.89
2018-09-15T05:05:35.856Z,97681.17
2018-09-15T05:08:03.524Z,97690.98
2018-09-15T05:10:31.053Z,97689.96
2018-09-15T05:12:58.593Z,97690.99
2018-09-15T05:15:26.030Z,97697.59
2018-09-15T05:17:53.523Z,97691.04
2018-09-15T05:20:20.988Z,97689.64
2018-09-15T05:22:48.643Z,97695.59
2018-09-15T05:25:16.043Z,97692.59
2018-09-15T05:27:43.583Z,97694.19
2018-09-15T05:30:11.017Z,97704.98
2018-09-15T05:32:38.438Z,97710.34
2018-09-15T05:35:05.888Z,97706.09
2018-09-15T05:37:33.375Z,97708.48
2018-09-15T05:40:01.079Z,97714.69
2018-09-15T05:42:28.464Z,97718.14
2018-09-15T05:44:55.922Z,97715.69
2018-09-15T05:47:23.344Z,97720.33
2018-09-15T05:49:51.575Z,97712.27
2018-09-15T05:52:19.034Z,97710.26
2018-09-15T05:54:46.537Z,97708.82
2018-09-15T05:57:14.119Z,97710.09
2018-09-15T05:59:41.539Z,97704.55
2018-09-15T06:02:09.029Z,97701.23
2018-09-15T06:04:36.495Z,97707.26
2018-09-15T06:07:03.965Z,97701.72
2018-09-15T06:09:31.407Z,97705.67
2018-09-15T06:11:58.818Z,97709.53
2018-09-15T06:14:26.469Z,97702.42
2018-09-15T06:16:53.886Z,97706.30
2018-09-15T06:19:21.399Z,97720.09
2018-09-15T06:21:48.832Z,97717.83
2018-09-15T06:24:16.290Z,97707.20
2018-09-15T06:26:43.704Z,97710.72
2018-09-15T06:29:11.200Z,97709.13
2018-09-15T06:31:38.222Z,97708.36
2018-09-15T06:34:05.163Z,97708.47
2018-09-15T06:36:32.170Z,97704.30
2018-09-15T06:38:59.203Z,97710.34
2018-09-15T06:41:26.266Z,97707.28
2018-09-15T06:43:53.224Z,97713.77
2018-09-15T06:46:20.204Z,97716.55
2018-09-15T06:48:48.455Z,97717.42
2018-09-15T06:51:16.022Z,97727.84
2018-09-15T06:53:43.518Z,97729.44
2018-09-15T06:56:10.492Z,97728.00
2018-09-15T06:58:37.487Z,97730.81
2018-09-15T07:01:04.516Z,97733.20
2018-09-15T07:03:31.571Z,97728.59
2018-09-15T07:05:58.645Z,97731.02
2018-09-15T07:08:25.678Z,97726.64
2018-09-15T07:10:52.652Z,97726.48
2018-09-15T07:13:19.635Z,97727.87
2018-09-15T07:15:46.678Z,97725.56
2018-09-15T07:18:13.744Z,97733.25
2018-09-15T07:20:40.796Z,97732.08
2018-09-15T07:23:07.883Z,97727.89
2018-09-15T07:25:34.837Z,97733.95
2018-09-15T07:28:01.921Z,97732.94
2018-09-15T07:30:28.991Z,97727.59
2018-09-15T07:32:55.985Z,97736.13
2018-09-15T07:35:23.484Z,97734.88
2018-09-15T07:37:50.927Z,97739.75
2018-09-15T07:40:18.455Z,97734.84
2018-09-15T07:42:45.618Z,97740.19
2018-09-15T07:45:12.572Z,97736.15
2018-09-15T07:47:39.692Z,97748.30
2018-09-15T07:50:06.888Z,97744.54
2018-09-15T07:52:33.990Z,97739.17
2018-09-15T07:55:01.356Z,97744.36
2018-09-15T07:57:28.553Z,97739.45
2018-09-15T07:59:55.706Z,97744.49
2018-09-15T08:02:22.739Z,97745.14
2018-09-15T08:04:49.774Z,97745.78
2018-09-15T08:07:17.750Z,97754.65
2018-09-15T08:09:45.382Z,97755.09
2018-09-15T08:12:13.370Z,97759.39
2018-09-15T08:14:41.409Z,97762.63
2018-09-15T08:17:09.019Z,97768.95
2018-09-15T08:19:36.922Z,97767.94
2018-09-15T08:22:04.593Z,97768.63
2018-09-15T08:24:31.667Z,97761.11
2018-09-15T08:26:58.895Z,97762.14
2018-09-15T08:29:26.429Z,97761.38
2018-09-15T08:31:53.620Z,97750.97
2018-09-15T08:34:20.717Z,97753.84
2018-09-15T08:36:48.514Z,97744.66
2018-09-15T08:39:16.660Z,97751.19
2018-09-15T08:41:44.614Z,97751.34
2018-09-15T08:44:12.247Z,97758.77
2018-09-15T08:46:39.822Z,97762.69
2018-09-15T08:49:07.837Z,97765.80
2018-09-15T08:51:35.914Z,97764.05
2018-09-15T08:54:03.905Z,97759.28
2018-09-15T08:56:31.674Z,97758.27
2018-09-15T08:58:59.752Z,97759.98
2018-09-15T09:01:27.815Z,97761.35
2018-09-15T09:03:56.090Z,97766.61
2018-09-15T09:06:25.316Z,97763.27
2018-09-15T09:08:53.806Z,97758.52
2018-09-15T09:11:22.287Z,97765.80
2018-09-15T09:13:50.824Z,97760.33
2018-09-15T09:16:19.453Z,97762.50
2018-09-15T09:18:47.959Z,97766.95
2018-09-15T09:21:16.469Z,97767.80
2018-09-15T09:23:44.908Z,97763.11
2018-09-15T09:26:13.480Z,97764.05
2018-09-15T09:28:42.073Z,97764.44
2018-09-15T09:31:11.009Z,97763.58
2018-09-15T09:33:39.253Z,97763.59
2018-09-15T09:36:07.931Z,97763.72
2018-09-15T09:38:36.465Z,97758.23
2018-09-15T09:41:05.797Z,97752.43
2018-09-15T09:43:34.606Z,97744.19
2018-09-15T09:46:03.336Z,97748.41
2018-09-15T09:48:32.014Z,97751.61
2018-09-15T09:51:01.249Z,97738.58
2018-09-15T09:53:30.372Z,97740.88
2018-09-15T09:56:03.622Z,97739.77
2018-09-15T09:58:32.045Z,97734.47
2018-09-15T10:01:00.528Z,97737.92
2018-09-15T10:03:29.058Z,97734.58
2018-09-15T10:05:57.486Z,97743.27
2018-09-15T10:08:26.370Z,97732.24
2018-09-15T10:10:54.667Z,97727.94
2018-09-15T10:13:23.138Z,97719.25
2018-09-15T10:15:51.876Z,97724.55
2018-09-15T10:18:20.591Z,97718.55
2018-09-15T10:20:49.048Z,97713.13
2018-09-15T10:23:17.509Z,97720.94
2018-09-15T10:25:45.976Z,97719.97
2018-09-15T10:28:14.484Z,97715.00
2018-09-15T10:30:42.931Z,97718.25
2018-09-15T10:33:11.451Z,97712.09
2018-09-15T10:35:39.395Z,97714.91
2018-09-15T10:38:07.949Z,97718.91
2018-09-15T10:40:36.011Z,97707.46
2018-09-15T10:43:03.665Z,97703.91
2018-09-15T10:45:32.935Z,97695.64
2018-09-15T10:48:01.480Z,97705.26
2018-09-15T10:50:31.193Z,97701.66
2018-09-15T10:52:59.343Z,97696.62
2018-09-15T10:55:27.509Z,97691.72
2018-09-15T10:57:56.007Z,97693.06
2018-09-15T11:00:25.319Z,97695.23
2018-09-15T11:02:54.260Z,97692.80
2018-09-15T11:05:22.734Z,97695.34
2018-09-15T11:07:51.120Z,97696.44
2018-09-15T11:10:19.707Z,97693.36
2018-09-15T11:12:48.137Z,97696.09
2018-09-15T11:15:16.906Z,97686.75
2018-09-15T11:17:46.113Z,97690.45
2018-09-15T11:20:14.815Z,97681.34
2018-09-15T11:22:43.230Z,97680.76
2018-09-15T11:25:12.443Z,97678.73
2018-09-15T11:27:40.858Z,97675.92
2018-09-15T11:30:09.966Z,97672.10
2018-09-15T11:32:38.483Z,97672.95
2018-09-15T11:35:06.969Z,97673.33
2018-09-15T11:37:35.618Z,97669.00
2018-09-15T11:40:03.609Z,97671.19
2018-09-15T11:42:32.163Z,97665.02
2018-09-15T11:45:00.779Z,97658.96
2018-09-15T11:47:29.330Z,97658.20
2018-09-15T11:49:57.812Z,97658.42
2018-09-15T11:52:26.383Z,97660.99
2018-09-15T11:54:56.248Z,97654.37
2018-09-15T11:57:24.897Z,97647.23
2018-09-15T11:59:53.432Z,97647.46
2018-09-15T12:02:21.888Z,97640.25
2018-09-15T12:04:50.330Z,97643.50
2018-09-15T12:07:18.805Z,97635.33
2018-09-15T12:09:47.350Z,97633.95
2018-09-15T12:12:15.820Z,97636.68
2018-09-15T12:14:44.514Z,97633.13
2018-09-15T12:17:12.932Z,97639.31
2018-09-15T12:19:41.477Z,97637.77
2018-09-15T12:22:10.124Z,97632.83
2018-09-15T12:24:38.648Z,97628.73
2018-09-15T12:27:06.576Z,97617.05
2018-09-15T12:29:35.195Z,97616.70
2018-09-15T12:32:03.642Z,97615.88
2018-09-15T12:34:32.107Z,97611.09
2018-09-15T12:37:01.013Z,97613.53
2018-09-15T12:39:29.803Z,97617.42
2018-09-15T12:41:58.824Z,97616.00
2018-09-15T12:44:27.468Z,97611.80
2018-09-15T12:46:56.159Z,97616.95
2018-09-15T12:49:24.705Z,97607.92
2018-09-15T12:51:53.142Z,97607.56
2018-09-15T12:54:21.824Z,97600.26
2018-09-15T12:56:50.283Z,97597.20
2018-09-15T12:59:18.819Z,97589.20
2018-09-15T13:01:47.293Z,97589.62
2018-09-15T13:04:15.840Z,97591.73
2018-09-15T13:06:44.223Z,97586.59
2018-09-15T13:09:12.936Z,97579.60
2018-09-15T13:11:40.919Z,97578.06
2018-09-15T13:14:10.104Z,97583.77
2018-09-15T13:16:38.753Z,97576.30
2018-09-15T13:19:07.272Z,97574.48
2018-09-15T13:21:35.722Z,97574.86
2018-09-15T13:24:04.414Z,97578.75
2018-09-15T13:26:32.886Z,97568.30
2018-09-15T13:29:01.406Z,97569.73
2018-09-15T13:31:29.576Z,97568.16
2018-09-15T13:33:58.367Z,97561.19
2018-09-15T13:36:26.839Z,97555.14
2018-09-15T13:38:55.590Z,97554.48
2018-09-15T13:41:24.183Z,97548.59
2018-09-15T13:43:52.372Z,97551.06
2018-09-15T13:46:20.977Z,97554.45
2018-09-15T13:48:49.132Z,97553.75
2018-09-15T13:51:17.739Z,97550.79
2018-09-15T13:53:46.058Z,97545.88
2018-09-15T13:56:14.661Z,97547.33
2018-09-15T13:58:43.247Z,97546.42
2018-09-15T14:01:11.472Z,97545.61
2018-09-15T14:03:39.946Z,97541.17
2018-09-15T14:06:08.433Z,97537.70
2018-09-15T14:08:37.059Z,97536.55
2018-09-15T14:11:05.612Z,97535.00
2018-09-15T14:13:34.250Z,97530.44
2018-09-15T14:16:02.243Z,97533.11
2018-09-15T14:18:30.436Z,97533.54
2018-09-15T14:20:58.870Z,97530.43
2018-09-15T14:23:27.342Z,97526.30
2018-09-15T14:25:55.825Z,97528.94
2018-09-15T14:28:24.499Z,97532.80
2018-09-15T14:30:52.616Z,97526.58
2018-09-15T14:33:20.404Z,97527.05
2018-09-15T14:35:48.941Z,97521.29
2018-09-15T14:38:17.653Z,97525.94
2018-09-15T14:40:46.518Z,97519.20
2018-09-15T14:43:15.119Z,97535.72
2018-09-15T14:45:43.697Z,97534.23
2018-09-15T14:48:13.288Z,97528.27
2018-09-15T14:50:41.900Z,97532.48
2018-09-15T14:53:09.857Z,97531.10
2018-09-15T14:55:38.460Z,97531.27
2018-09-15T14:58:06.913Z,97528.73
2018-09-15T15:00:35.441Z,97534.88
2018-09-15T15:03:04.283Z,97535.06
2018-09-15T15:05:32.749Z,97537.84
2018-09-15T15:08:00.755Z,97533.36
2018-09-15T15:10:29.309Z,97530.01
2018-09-15T15:12:57.796Z,97530.56
2018-09-15T15:15:26.340Z,97526.71
2018-09-15T15:17:54.953Z,97522.06
2018-09-15T15:20:24.165Z,97529.48
2018-09-15T15:22:52.956Z,97531.25
2018-09-15T15:25:21.472Z,97527.34
2018-09-15T15:27:50.122Z,97521.52
2018-09-15T15:30:18.784Z,97525.81
2018-09-15T15:32:48.227Z,97522.84
2018-09-15T15:35:16.838Z,97530.08
2018-09-15T15:37:45.296Z,97524.53
2018-09-15T15:40:13.957Z,97523.95
2018-09-15T15:42:42.694Z,97522.95
2018-09-15T15:45:11.769Z,97520.67
2018-09-15T15:47:40.055Z,97533.41
2018-09-15T15:50:08.327Z,97534.57
2018-09-15T15:52:36.392Z,97535.29
2018-09-15T15:55:04.778Z,97533.05
2018-09-15T15:57:33.790Z,97529.84
2018-09-15T16:00:03.395Z,97528.59
2018-09-15T16:02:31.502Z,97537.68
2018-09-15T16:04:59.618Z,97543.36
2018-09-15T16:07:27.815Z,97531.34
2018-09-15T16:09:56.583Z,97538.17
2018-09-15T16:12:25.020Z,97531.98
2018-09-15T16:14:53.537Z,97536.12
2018-09-15T16:17:22.028Z,97533.17
2018-09-15T16:19:51.538Z,97538.03
2018-09-15T16:22:20.020Z,97530.72
2018-09-15T16:24:48.589Z,97539.83
2018-09-15T16:27:17.158Z,97537.86
2018-09-15T16:29:45.371Z,97534.91
2018-09-15T16:32:13.536Z,97536.39
2018-09-15T16:34:41.840Z,97536.86
2018-09-15T16:37:10.299Z,97531.17
2018-09-15T16:39:39.178Z,97536.45
2018-09-15T16:42:07.625Z,97535.41
2018-09-15T16:44:36.151Z,97540.00
2018-09-15T16:47:05.011Z,97536.84
2018-09-15T16:49:33.500Z,97537.28
2018-09-15T16:52:02.199Z,97542.23
2018-09-15T16:54:30.362Z,97551.06
2018-09-15T16:56:58.612Z,97550.27
2018-09-15T16:59:26.734Z,97544.23
2018-09-15T17:01:54.770Z,97557.86
2018-09-15T17:04:22.856Z,97558.55
2018-09-15T17:06:50.927Z,97560.68
2018-09-15T17:09:18.857Z,97557.99
2018-09-15T17:11:46.826Z,97560.47
2018-09-15T17:14:14.999Z,97565.05
2018-09-15T17:16:43.182Z,97572.68
2018-09-15T17:19:11.914Z,97576.16
2018-09-15T17:21:40.124Z,97576.70
2018-09-15T17:24:08.385Z,97581.80
2018-09-15T17:26:37.337Z,97582.44
2018-09-15T17:29:06.363Z,97581.20
2018-09-15T17:31:35.005Z,97580.51
2018-09-15T17:34:03.412Z,97582.77
2018-09-15T17:36:32.334Z,97577.30
2018-09-15T17:39:00.495Z,97581.11
2018-09-15T17:41:28.415Z,97584.57
2018-09-15T17:43:56.708Z,97595.77
2018-09-15T17:46:26.287Z,97581.21
2018-09-15T17:48:55.111Z,97589.30
2018-09-15T17:51:23.184Z,97586.30
2018-09-15T17:53:51.576Z,97588.16
2018-09-15T17:56:20.225Z,97594.63
2018-09-15T17:58:48.275Z,97585.42
2018-09-15T18:01:16.767Z,97596.00
2018-09-15T18:03:44.793Z,97599.59
2018-09-15T18:06:13.372Z,97609.70
2018-09-15T18:08:41.811Z,97612.45
2018-09-15T18:11:10.293Z,97615.39
2018-09-15T18:13:38.320Z,97612.73
2018-09-15T18:16:06.472Z,97615.07
2018-09-15T18:18:34.443Z,97621.00
2018-09-15T18:21:02.629Z,97624.91
2018-09-15T18:23:30.988Z,97629.36
2018-09-15T18:25:59.083Z,97628.09
2018-09-15T18:28:27.109Z,97634.52
2018-09-15T18:30:55.112Z,97625.91
2018-09-15T18:33:23.388Z,97638.78
2018-09-15T18:35:51.773Z,97643.20
2018-09-15T18:38:19.962Z,97644.95
2018-09-15T18:40:48.056Z,97646.69
2018-09-15T18:43:16.294Z,97652.73
2018-09-15T18:45:46.002Z,97652.08
2018-09-15T18:48:14.068Z,97655.48
2018-09-15T18:50:42.397Z,97653.52
2018-09-15T18:53:10.723Z,97660.28
2018-09-15T18:55:39.309Z,97661.17
2018-09-15T18:58:08.021Z,97667.00
2018-09-15T19:00:36.657Z,97668.81
2018-09-15T19:03:05.328Z,97666.35
2018-09-15T19:05:33.765Z,97677.44
2018-09-15T19:08:02.301Z,97679.84
2018-09-15T19:10:30.786Z,97678.83
2018-09-15T19:12:59.672Z,97678.05
2018-09-15T19:15:27.659Z,97681.20
2018-09-15T19:17:55.516Z,97678.59
2018-09-15T19:20:23.737Z,97692.05
2018-09-15T19:22:51.987Z,97694.01
2018-09-15T19:25:19.993Z,97689.96
2018-09-15T19:27:48.402Z,97687.99
2018-09-15T19:30:16.786Z,97690.48
2018-09-15T19:32:45.349Z,97685.05
2018-09-15T19:35:14.689Z,97691.68
2018-09-15T19:37:43.269Z,97693.80
2018-09-15T19:40:11.743Z,97696.88
2018-09-15T19:42:41.771Z,97690.80
2018-09-15T19:45:10.352Z,97695.45
2018-09-15T19:47:39.877Z,97689.33
2018-09-15T19:50:08.325Z,97689.16
2018-09-15T19:52:37.373Z,97697.76
2018-09-15T19:55:06.190Z,97694.31
2018-09-15T19:57:34.829Z,97698.31
2018-09-15T20:00:03.766Z,97693.29
2018-09-15T20:02:32.413Z,97694.95
2018-09-15T20:05:01.021Z,97700.89
2018-09-15T20:07:29.742Z,97703.25
2018-09-15T20:09:58.264Z,97702.23
2018-09-15T20:12:26.725Z,97700.85
2018-09-15T20:14:55.212Z,97705.30
2018-09-15T20:17:23.268Z,97700.80
2018-09-15T20:19:51.334Z,97706.78
2018-09-15T20:22:20.666Z,97706.87
2018-09-15T20:24:49.338Z,97710.78
2018-09-15T20:27:18.036Z,97715.96
2018-09-15T20:29:46.549Z,97714.44
2018-09-15T20:32:15.369Z,97713.52
2018-09-15T20:34:43.865Z,97717.52
2018-09-15T20:37:12.374Z,97717.94
2018-09-15T20:39:41.054Z,97713.11
2018-09-15T20:42:09.631Z,97720.83
2018-09-15T20:44:37.918Z,97722.47
2018-09-15T20:47:06.477Z,97719.30
2018-09-15T20:49:35.143Z,97720.15
2018-09-15T20:52:03.846Z,97721.30
2018-09-15T20:54:32.516Z,97715.77
2018-09-15T20:57:01.254Z,97710.12
2018-09-15T20:59:31.018Z,97709.38
2018-09-15T21:01:59.803Z,97714.72
2018-09-15T21:04:28.496Z,97716.02
2018-09-15T21:06:57.013Z,97719.84
2018-09-15T21:09:25.683Z,97716.95
2018-09-15T21:11:54.147Z,97722.06
2018-09-15T21:14:22.668Z,97726.14
2018-09-15T21:16:51.113Z,97721.87
2018-09-15T21:19:19.916Z,97725.13
2018-09-15T21:21:48.483Z,97733.31
2018-09-15T21:24:16.963Z,97727.42
2018-09-15T21:26:45.455Z,97731.91
2018-09-15T21:29:14.061Z,97722.67
2018-09-15T21:31:42.842Z,97727.18
2018-09-15T21:34:11.371Z,97732.19
2018-09-15T21:36:39.872Z,97729.06
2018-09-15T21:39:08.755Z,97737.20
2018-09-15T21:41:42.992Z,97733.84
2018-09-15T21:44:11.518Z,97742.17
2018-09-15T21:46:40.827Z,97736.53
2018-09-15T21:49:09.477Z,97733.67
2018-09-15T21:51:37.976Z,97739.84
2018-09-15T21:54:06.723Z,97740.89
2018-09-15T21:56:35.408Z,97732.14
2018-09-15T21:59:03.842Z,97742.95
2018-09-15T22:01:32.277Z,97739.98
2018-09-15T22:04:00.786Z,97740.98
2018-09-15T22:06:29.481Z,97736.17
2018-09-15T22:08:58.109Z,97740.20
2018-09-15T22:11:25.993Z,97733.59
2018-09-15T22:13:54.229Z,97744.26
2018-09-15T22:16:22.241Z,97745.01
2018-09-15T22:18:51.124Z,97745.36
2018-09-15T22:21:19.377Z,97739.09
2018-09-15T22:23:47.476Z,97741.11
2018-09-15T22:26:16.732Z,97739.66
2018-09-15T22:28:44.442Z,97734.33
2018-09-15T22:31:12.280Z,97728.86
2018-09-15T22:33:40.000Z,97730.47
2018-09-15T22:36:07.475Z,97730.75
2018-09-15T22:38:34.938Z,97728.13
2018-09-15T22:41:02.345Z,97733.30
2018-09-15T22:43:29.885Z,97730.88
2018-09-15T22:45:57.314Z,97731.19
2018-09-15T22:48:24.784Z,97728.73
2018-09-15T22:50:52.271Z,97723.67
2018-09-15T22:53:19.676Z,97718.90
2018-09-15T22:55:47.122Z,97718.38
2018-09-15T22:58:14.542Z,97722.50
2018-09-15T23:00:41.979Z,97717.17
2018-09-15T23:03:09.525Z,97717.05
2018-09-15T23:05:46.313Z,97717.08
2018-09-15T23:08:13.893Z,97717.02
2018-09-15T23:10:41.343Z,97711.20
2018-09-15T23:13:08.778Z,97714.02
2018-09-15T23:15:36.223Z,97714.13
2018-09-15T23:18:03.674Z,97719.46
2018-09-15T23:20:32.395Z,97719.67
2018-09-15T23:22:59.800Z,97728.88
2018-09-15T23:25:27.575Z,97723.25
2018-09-15T23:27:55.000Z,97716.45
2018-09-15T23:30:22.638Z,97719.57
2018-09-15T23:32:50.105Z,97717.81
2018-09-15T23:35:17.685Z,97726.23
2018-09-15T23:37:45.179Z,97723.70
2018-09-15T23:40:12.637Z,97712.51
2018-09-15T23:42:40.613Z,97710.55
2018-09-15T23:45:08.047Z,97718.14
2018-09-15T23:47:38.482Z,97721.81
2018-09-15T23:50:05.892Z,97716.33
2018-09-15T23:52:41.950Z,97715.22
2018-09-15T23:55:10.131Z,97714.70
2018-09-15T23:57:37.541Z,97711.92
